Lake Isabella, CA

4:22 AM PDT on April 01, 2015 (GMT -0700)
Lake Isabella | | Change Station
CLOSE
Current Station
Personal Weather Station
Location: California, CA
Elevation: 3258 ft
Nearby Weather Stations
Active Advisory: Wind Advisory Active Notice: Public Information Statement

Elev 3258 ft 35.60 °N, 118.44 °W | Updated 14 seconds ago

Clear
Clear
46.0 °F
Feels Like 46 °F
N
0.2
Wind Variable Wind from SSE
Gusts 2.5 mph

Today
High -- | Low -- °F
--% Chance of Precip.
Yesterday
High -- | Low -- °F
Precip. -- in
6:40 AM 7:15 PM
Waxing Gibbous, 92% visible
Pressure 30.10 in
Visibility 10.0 miles
Clouds Few 3600 ft
Windchill 46 °F
Dew Point 30 °F
Humidity 52%
Rainfall 0.00 in
Snow Depth Not available.
UV 0 out of 12
Pollen 10.60 out of 12
Air Quality Not available.
Flu Activity Not available.
METAR KTSP 011115Z AUTO 30012KT 10SM FEW036 05/01 A3010 RMK AO2

More Conditions Fewer Conditions

Pressure 30.10 in
Visibility 10.0 miles
Clouds Few 3600 ft
Windchill 46 °F
Dew Point 30 °F
Humidity 52%
Rainfall 0.00 in
Snow Depth Not available.
UV 0 out of 12
Pollen 10.60 out of 12
Air Quality Not available.
Flu Activity Not available.
METAR KTSP 011115Z AUTO 30012KT 10SM FEW036 05/01 A3010 RMK AO2

More Conditions Fewer Conditions

10-Day Weather Forecast

Almanac

Astronomy

Apr. 01, 2015 Rise Set
Actual Time
Civil Twilight
Nautical Twilight
Astronomical Twilight
Moon
Length of Visible Light
Length of Day
Tomorrow will be .
, % of the Moon is Illuminated

Today's Extremes

State Highs State Lows

Community

WunderPhotos

Upload Photos

1,809,936 photos uploaded!

WunderBlogs® & News

Nearby

Air Quality

  Air Quality AQ Index Pollutant
Not available.

Snow Depth

Station Depth Elevation

Earthquake Activity

City Distance Mag. Time & Date
Minimum magnitude displayed is 2.5.

Coastal Water Temperatures

Place Temperature

Stations

Nearby Weather Stations

Station Location Temp. Windchill Dew Point Humidity Wind Precip. Elev Updated Type
                   
Wind Advisory
Statement as of 3:20 AM PDT on April 01, 2015

... Wind Advisory now in effect until 5 am PDT Thursday for the
Kern County mountains and desert...

* winds... northwest 20 to 30 mph with gusts up to 55 mph. Gusts
may be locally stronger.

* Timing... winds will pick up later this morning with the
strongest winds from 3 PM through 9 PM. Winds will gradually
decrease overnight.

* Impacts... blowing dust and sand are possible in the Kern
County desert areas below the passes... especially near Mojave
and along the Highway 14 corridor. Strong winds are possible
through the Tehachapi Pass along Highway 58.

Precautionary/preparedness actions...

A Wind Advisory means that winds of 45 mph are expected. Winds
this strong can make driving difficult... especially for high
profile vehicles. Use extra caution.